หน้าหลัก
METAR-TAF:

METAR-TAF

ท่าอากาศยาน :

แอลเจียร์, แอลจีเรีย

ละติจูด: 36-43N, ลองจิจูด: 003-15E, ความสูง: 25 ม.

การสังเกตสภาพอากาศปัจจุบัน

รายงานได้ทำขึ้นเมื่อ 20 นาทีที่แล้ว ณ เวลา 20:00 UTC
ลม 6 นอตจากตะวันออก
อุณหภูมิ 20°C
ความชื้น 88%
ความกดอากาศ 1015 hPa
ทัศนวิสัย 10 กม. หรือมากกว่า
มีเมฆน้อยที่ความสูง 2000 ฟุต
มีเมฆกระจายเป็นบางส่วนที่ความสูง 20000 ฟุต

METAR: DAAG 012000Z 08006KT 9999 FEW020 SCT200 20/18 Q1015

เวลา: 21:20 (20:20 UTC)

การพยากรณ์

รายงานได้ทำขึ้นเมื่อ 3 ชั่วโมงและ 20 นาทีที่แล้ว ณ เวลา 17:00 UTC
การพยากรณ์มีผลตั้งแต่วันที่ 01 ณ เวลา 18 UTC จนถึงวันที่ 02 ณ เวลา 18 UTC
ลม 2 นอตจากทิศทางซึ่งแปรผันได้
ทัศนวิสัย 10 กม. หรือมากกว่า
มีเมฆน้อยที่ความสูง 2600 ฟุต
ความน่าจะเป็น 30%
ตั้งแต่วันที่ 01 ณ เวลา 18 UTC จนถึงวันที่ 01 ณ เวลา 22 UTC
มีเมฆน้อยที่ความสูง 3000 ฟุต, คิวมูลัสที่ก่อตัวขึ้นสูง.
กำลังกลายเป็น
ตั้งแต่วันที่ 02 ณ เวลา 08 UTC จนถึงวันที่ 02 ณ เวลา 11 UTC
ลม 10 นอตจากตะวันออกเฉียงเหนือ

TAF: DAAG 011700Z 0118/0218 VRB02KT 9999 FEW026 PROB30 0118/0122 FEW030TCU BECMG 0208/0211 04010KT

สังเกตการณ์สภาพอากาศและพยากรณ์อากาศของสนามบินมากกว่า 4000 แห่ง (รายงาน METAR และ TAF).

สถานีที่ดูได้จะแสดงไว้ด้วยจุดสีเหลืองและสีแดงบนแผนที่.

เลื่อนเมาส์ไปเหนือจุดเพื่อดูชื่อสถานี.

แล้วคลิกเพื่อดูสังเกตการณ์และการพยากรณ์สภาพอากาศ.

ในการเปลี่ยนแผนที่: คลิกที่ปุ่มสีเขียวที่มีกากบาทสีดำเพื่อซูมเข้า; ที่ปุ่มสีเขียวที่มีขีดเพื่อซูมออก; หรือที่ลูกศรสีเขียวเพื่อไปยังแผนที่ที่อยู่ติดกัน.


METAR-TAF: